createdAt,value
2019-06-08T00:01:05.256Z,18.90
2019-06-08T00:03:38.021Z,18.95
2019-06-08T00:06:10.374Z,18.98
2019-06-08T00:08:42.988Z,19.01
2019-06-08T00:11:15.427Z,18.99
2019-06-08T00:13:48.003Z,19.00
2019-06-08T00:16:21.450Z,18.96
2019-06-08T00:18:53.914Z,18.90
2019-06-08T00:21:26.758Z,18.82
2019-06-08T00:23:59.295Z,18.78
2019-06-08T00:26:31.675Z,18.81
2019-06-08T00:29:05.070Z,18.80
2019-06-08T00:31:37.590Z,18.75
2019-06-08T00:34:10.196Z,18.71
2019-06-08T00:36:42.738Z,18.62
2019-06-08T00:39:15.368Z,18.49
2019-06-08T00:41:47.697Z,18.38
2019-06-08T00:44:21.295Z,18.37
2019-06-08T00:46:53.664Z,18.39
2019-06-08T00:49:26.426Z,18.37
2019-06-08T00:51:58.684Z,18.36
2019-06-08T00:54:32.442Z,18.36
2019-06-08T00:57:04.929Z,18.30
2019-06-08T00:59:37.821Z,18.29
2019-06-08T01:02:10.614Z,18.35
2019-06-08T01:04:43.442Z,18.32
2019-06-08T01:07:15.958Z,18.33
2019-06-08T01:09:49.461Z,18.34
2019-06-08T01:12:22.536Z,18.36
2019-06-08T01:14:53.791Z,18.35
2019-06-08T01:17:27.515Z,18.37
2019-06-08T01:20:00.108Z,18.38
2019-06-08T01:22:32.954Z,18.41
2019-06-08T01:25:06.818Z,18.49
2019-06-08T01:27:39.457Z,18.50
2019-06-08T01:30:12.188Z,18.55
2019-06-08T01:32:45.148Z,18.54
2019-06-08T01:35:17.648Z,18.51
2019-06-08T01:37:50.633Z,18.54
2019-06-08T01:40:23.282Z,18.52
2019-06-08T01:42:55.932Z,18.49
2019-06-08T01:45:32.792Z,18.45
2019-06-08T01:48:19.484Z,18.44
2019-06-08T01:50:41.302Z,18.33
2019-06-08T01:53:13.919Z,18.29
2019-06-08T01:55:46.355Z,18.35
2019-06-08T01:58:18.898Z,18.36
2019-06-08T02:00:51.639Z,18.39
2019-06-08T02:03:24.609Z,18.46
2019-06-08T02:05:57.283Z,18.52
2019-06-08T02:08:30.638Z,18.51
2019-06-08T02:11:03.385Z,18.51
2019-06-08T02:13:35.876Z,18.57
2019-06-08T02:16:08.391Z,18.64
2019-06-08T02:18:50.119Z,18.79
2019-06-08T02:21:15.407Z,18.83
2019-06-08T02:23:47.936Z,18.93
2019-06-08T02:26:20.495Z,19.02
2019-06-08T02:28:53.173Z,19.13
2019-06-08T02:31:25.711Z,19.40
2019-06-08T02:33:58.696Z,19.73
2019-06-08T02:36:33.162Z,19.55
2019-06-08T02:39:07.783Z,19.64
2019-06-08T02:41:40.217Z,20.15
2019-06-08T02:44:12.831Z,20.37
2019-06-08T02:46:45.267Z,20.52
2019-06-08T02:49:18.095Z,21.46
2019-06-08T02:51:50.905Z,21.46
2019-06-08T02:54:23.511Z,22.52
2019-06-08T02:56:56.222Z,23.24
2019-06-08T02:59:31.282Z,24.18
2019-06-08T03:02:04.035Z,25.08
2019-06-08T03:04:40.770Z,25.86
2019-06-08T03:07:15.594Z,26.34
2019-06-08T03:09:50.705Z,26.38
2019-06-08T03:12:26.915Z,26.45
2019-06-08T03:15:01.156Z,27.07
2019-06-08T03:17:35.452Z,27.77
2019-06-08T03:20:08.114Z,27.93
2019-06-08T03:22:41.921Z,27.93
2019-06-08T03:25:15.758Z,27.80
2019-06-08T03:27:48.111Z,27.84
2019-06-08T03:30:20.736Z,29.15
2019-06-08T03:32:56.193Z,29.88
2019-06-08T03:35:28.104Z,30.06
2019-06-08T03:38:00.450Z,29.56
2019-06-08T03:40:35.877Z,29.33
2019-06-08T03:43:09.356Z,29.02
2019-06-08T03:45:43.033Z,28.43
2019-06-08T03:48:15.831Z,28.21
2019-06-08T03:50:48.384Z,27.59
2019-06-08T03:53:20.972Z,28.10
2019-06-08T03:55:53.166Z,29.23
2019-06-08T03:58:25.895Z,29.53
2019-06-08T04:00:58.208Z,31.22
2019-06-08T04:03:31.019Z,31.83
2019-06-08T04:06:03.742Z,30.01
2019-06-08T04:08:37.917Z,30.33
2019-06-08T04:11:10.422Z,31.91
2019-06-08T04:13:44.519Z,32.66
2019-06-08T04:16:17.140Z,33.49
2019-06-08T04:18:50.368Z,33.98
2019-06-08T04:21:22.774Z,32.41
2019-06-08T04:23:55.349Z,34.03
2019-06-08T04:26:27.929Z,34.19
2019-06-08T04:29:00.513Z,34.74
2019-06-08T04:31:32.775Z,34.53
2019-06-08T04:34:05.384Z,33.87
2019-06-08T04:36:38.952Z,34.37
2019-06-08T04:39:11.646Z,34.48
2019-06-08T04:41:45.000Z,33.59
2019-06-08T04:44:18.151Z,35.00
2019-06-08T04:46:50.809Z,35.48
2019-06-08T04:49:23.420Z,36.39
2019-06-08T04:51:55.763Z,34.19
2019-06-08T04:54:28.554Z,34.36
2019-06-08T04:57:02.143Z,34.55
2019-06-08T04:59:34.924Z,34.85
2019-06-08T05:02:07.287Z,33.62
2019-06-08T05:04:40.994Z,31.36
2019-06-08T05:07:13.737Z,32.13
2019-06-08T05:09:47.165Z,32.63
2019-06-08T05:12:19.660Z,32.85
2019-06-08T05:14:52.265Z,31.56
2019-06-08T05:17:24.797Z,32.36
2019-06-08T05:19:57.203Z,30.73
2019-06-08T05:22:29.546Z,31.98
2019-06-08T05:25:02.437Z,32.38
2019-06-08T05:27:35.142Z,32.82
2019-06-08T05:30:09.126Z,32.95
2019-06-08T05:32:41.851Z,35.08
2019-06-08T05:35:14.681Z,32.46
2019-06-08T05:37:47.791Z,32.37
2019-06-08T05:40:20.364Z,33.55
2019-06-08T05:42:52.896Z,32.84
2019-06-08T05:45:25.520Z,33.34
2019-06-08T05:47:58.193Z,32.14
2019-06-08T05:50:30.395Z,34.35
2019-06-08T05:53:02.933Z,31.62
2019-06-08T05:55:35.815Z,33.81
2019-06-08T05:58:08.611Z,33.55
2019-06-08T06:00:42.159Z,35.02
2019-06-08T06:03:14.630Z,34.71
2019-06-08T06:05:46.939Z,34.40
2019-06-08T06:08:19.781Z,35.36
2019-06-08T06:10:52.028Z,34.99
2019-06-08T06:13:24.675Z,37.13
2019-06-08T06:15:57.150Z,35.95
2019-06-08T06:18:29.860Z,33.00
2019-06-08T06:21:11.008Z,33.97
2019-06-08T06:23:36.480Z,34.95
2019-06-08T06:26:09.043Z,36.61
2019-06-08T06:28:41.414Z,35.90
2019-06-08T06:31:14.216Z,38.00
2019-06-08T06:33:47.951Z,37.03
2019-06-08T06:36:20.479Z,37.22
2019-06-08T06:38:53.410Z,37.50
2019-06-08T06:41:25.993Z,38.28
2019-06-08T06:43:58.415Z,36.86
2019-06-08T06:46:31.267Z,36.85
2019-06-08T06:49:03.521Z,38.94
2019-06-08T06:51:36.124Z,38.35
2019-06-08T06:54:08.496Z,35.40
2019-06-08T06:56:41.251Z,34.43
2019-06-08T06:59:13.623Z,34.83
2019-06-08T07:01:47.549Z,35.55
2019-06-08T07:04:21.227Z,35.60
2019-06-08T07:06:54.411Z,33.63
2019-06-08T07:09:26.893Z,35.37
2019-06-08T07:11:59.413Z,34.50
2019-06-08T07:14:32.106Z,33.76
2019-06-08T07:17:04.937Z,34.92
2019-06-08T07:19:37.239Z,35.60
2019-06-08T07:22:10.823Z,37.57
2019-06-08T07:24:43.286Z,37.24
2019-06-08T07:27:16.093Z,35.02
2019-06-08T07:29:48.646Z,36.85
2019-06-08T07:32:21.606Z,38.01
2019-06-08T07:34:55.346Z,35.11
2019-06-08T07:37:28.622Z,36.03
2019-06-08T07:40:01.617Z,38.97
2019-06-08T07:42:34.668Z,37.32
2019-06-08T07:45:08.825Z,36.29
2019-06-08T07:47:43.611Z,34.02
2019-06-08T07:50:17.805Z,34.16
2019-06-08T07:52:52.780Z,36.26
2019-06-08T07:55:26.182Z,36.68
2019-06-08T07:58:00.336Z,36.58
2019-06-08T08:00:35.550Z,35.37
2019-06-08T08:03:09.335Z,34.45
2019-06-08T08:05:43.259Z,35.62
2019-06-08T08:08:16.282Z,34.97
2019-06-08T08:10:50.290Z,35.13
2019-06-08T08:13:23.687Z,35.46
2019-06-08T08:15:58.594Z,35.30
2019-06-08T08:18:30.467Z,35.26
2019-06-08T08:21:15.474Z,36.30
2019-06-08T08:23:39.488Z,36.15
2019-06-08T08:26:12.403Z,34.46
2019-06-08T08:28:44.983Z,33.41
2019-06-08T08:31:18.632Z,31.95
2019-06-08T08:33:52.533Z,30.00
2019-06-08T08:36:25.453Z,29.36
2019-06-08T08:39:00.562Z,29.00
2019-06-08T08:41:31.779Z,28.52
2019-06-08T08:44:04.812Z,28.26
2019-06-08T08:46:38.687Z,27.88
2019-06-08T08:49:13.179Z,27.72
2019-06-08T08:51:47.569Z,27.81
2019-06-08T08:54:19.737Z,27.84
2019-06-08T08:56:55.036Z,27.95
2019-06-08T08:59:28.023Z,28.32
2019-06-08T09:02:02.591Z,28.17
2019-06-08T09:04:37.866Z,27.86
2019-06-08T09:07:10.634Z,28.08
2019-06-08T09:09:43.123Z,27.93
2019-06-08T09:12:18.074Z,28.16
2019-06-08T09:14:49.665Z,28.20
2019-06-08T09:17:23.825Z,28.16
2019-06-08T09:19:58.798Z,28.37
2019-06-08T09:22:31.257Z,28.66
2019-06-08T09:25:04.616Z,28.55
2019-06-08T09:27:38.302Z,28.62
2019-06-08T09:30:10.767Z,28.31
2019-06-08T09:32:43.650Z,28.19
2019-06-08T09:35:18.786Z,28.18
2019-06-08T09:37:50.178Z,28.01
2019-06-08T09:40:22.436Z,28.11
2019-06-08T09:42:58.325Z,28.12
2019-06-08T09:45:29.835Z,28.31
2019-06-08T09:48:05.502Z,28.18
2019-06-08T09:50:38.529Z,28.37
2019-06-08T09:53:23.743Z,28.66
2019-06-08T09:55:44.318Z,28.67
2019-06-08T09:58:18.026Z,28.91
2019-06-08T10:00:51.529Z,28.80
2019-06-08T10:03:24.207Z,28.58
2019-06-08T10:06:01.540Z,28.33
2019-06-08T10:08:30.816Z,28.42
2019-06-08T10:11:04.864Z,28.29
2019-06-08T10:13:39.143Z,28.32
2019-06-08T10:16:11.444Z,28.46
2019-06-08T10:18:44.185Z,28.52
2019-06-08T10:21:18.268Z,28.63
2019-06-08T10:23:50.747Z,28.76
2019-06-08T10:26:23.090Z,28.84
2019-06-08T10:28:58.712Z,29.21
2019-06-08T10:31:38.897Z,29.04
2019-06-08T10:34:04.913Z,28.99
2019-06-08T10:36:38.301Z,29.06
2019-06-08T10:39:11.796Z,29.05
2019-06-08T10:41:44.464Z,29.24
2019-06-08T10:44:18.371Z,29.18
2019-06-08T10:46:51.671Z,29.15
2019-06-08T10:49:24.305Z,29.25
2019-06-08T10:52:01.172Z,29.05
2019-06-08T10:54:30.911Z,28.86
2019-06-08T10:57:06.568Z,29.01
2019-06-08T10:59:40.234Z,29.35
2019-06-08T11:02:14.481Z,29.43
2019-06-08T11:04:53.508Z,29.82
2019-06-08T11:07:27.994Z,29.66
2019-06-08T11:10:02.033Z,29.70
2019-06-08T11:12:37.596Z,29.89
2019-06-08T11:15:11.781Z,30.24
2019-06-08T11:17:43.963Z,30.93
2019-06-08T11:20:16.849Z,31.24
2019-06-08T11:22:50.149Z,30.89
2019-06-08T11:25:23.308Z,30.67
2019-06-08T11:27:58.254Z,31.18
2019-06-08T11:30:30.685Z,30.26
2019-06-08T11:33:03.819Z,30.56
2019-06-08T11:35:38.377Z,31.02
2019-06-08T11:38:12.617Z,31.05
2019-06-08T11:40:47.737Z,31.31
2019-06-08T11:43:19.466Z,30.59
2019-06-08T11:45:52.077Z,29.99
2019-06-08T11:48:25.349Z,30.17
2019-06-08T11:50:58.532Z,30.00
2019-06-08T11:53:30.979Z,30.00
2019-06-08T11:56:05.237Z,29.81
2019-06-08T11:58:38.920Z,29.77
2019-06-08T12:01:13.797Z,29.76
2019-06-08T12:03:45.354Z,29.64
2019-06-08T12:06:18.589Z,29.62
2019-06-08T12:08:51.191Z,29.41
2019-06-08T12:11:23.845Z,29.69
2019-06-08T12:13:58.397Z,29.87
2019-06-08T12:16:30.489Z,29.89
2019-06-08T12:19:04.300Z,29.83
2019-06-08T12:21:36.974Z,29.73
2019-06-08T12:24:10.372Z,29.64
2019-06-08T12:26:43.916Z,29.84
2019-06-08T12:29:18.773Z,29.75
2019-06-08T12:31:50.173Z,29.85
2019-06-08T12:34:22.843Z,30.49
2019-06-08T12:36:55.566Z,30.96
2019-06-08T12:39:28.290Z,30.98
2019-06-08T12:42:00.830Z,30.93
2019-06-08T12:44:33.450Z,30.67
2019-06-08T12:47:07.985Z,30.22
2019-06-08T12:49:40.429Z,30.02
2019-06-08T12:52:14.546Z,29.73
2019-06-08T12:54:59.226Z,29.73
2019-06-08T12:57:22.157Z,29.68
2019-06-08T13:00:00.004Z,29.68
2019-06-08T13:02:31.675Z,29.82
2019-06-08T13:05:10.727Z,29.86
2019-06-08T13:07:41.604Z,29.75
2019-06-08T13:10:15.319Z,29.67
2019-06-08T13:12:48.016Z,29.73
2019-06-08T13:15:22.030Z,29.63
2019-06-08T13:17:54.612Z,29.85
2019-06-08T13:20:28.341Z,29.81
2019-06-08T13:23:00.941Z,29.80
2019-06-08T13:25:40.182Z,29.70
2019-06-08T13:28:10.903Z,29.79
2019-06-08T13:30:41.558Z,29.81
2019-06-08T13:33:14.096Z,29.99
2019-06-08T13:35:48.017Z,30.07
2019-06-08T13:38:23.021Z,29.96
2019-06-08T13:40:55.292Z,30.28
2019-06-08T13:43:27.770Z,29.87
2019-06-08T13:46:00.294Z,30.10
2019-06-08T13:48:33.062Z,30.18
2019-06-08T13:51:05.673Z,30.23
2019-06-08T13:53:38.479Z,30.23
2019-06-08T13:56:11.109Z,29.91
2019-06-08T13:58:43.339Z,29.88
2019-06-08T14:01:17.498Z,29.81
2019-06-08T14:03:50.551Z,29.88
2019-06-08T14:06:23.725Z,29.82
2019-06-08T14:08:58.047Z,29.81
2019-06-08T14:11:30.458Z,29.69
2019-06-08T14:14:02.885Z,29.77
2019-06-08T14:16:35.437Z,29.67
2019-06-08T14:19:08.650Z,29.96
2019-06-08T14:21:42.026Z,30.08
2019-06-08T14:24:14.407Z,30.17
2019-06-08T14:26:48.599Z,30.10
2019-06-08T14:29:22.867Z,30.19
2019-06-08T14:31:57.589Z,29.89
2019-06-08T14:34:30.885Z,29.66
2019-06-08T14:37:03.356Z,29.07
2019-06-08T14:39:35.717Z,28.83
2019-06-08T14:42:08.457Z,28.62
2019-06-08T14:44:40.874Z,28.25
2019-06-08T14:47:16.220Z,28.33
2019-06-08T14:49:48.984Z,28.38
2019-06-08T14:52:22.703Z,28.32
2019-06-08T14:54:58.514Z,28.32
2019-06-08T14:57:30.928Z,28.38
2019-06-08T15:00:08.629Z,28.49
2019-06-08T15:02:38.811Z,28.54
2019-06-08T15:05:11.363Z,28.68
2019-06-08T15:07:43.772Z,28.80
2019-06-08T15:10:18.182Z,28.92
2019-06-08T15:12:53.546Z,28.91
2019-06-08T15:15:25.868Z,29.04
2019-06-08T15:17:59.138Z,29.06
2019-06-08T15:20:31.702Z,29.08
2019-06-08T15:23:04.400Z,28.85
2019-06-08T15:25:38.681Z,28.78
2019-06-08T15:28:11.022Z,28.69
2019-06-08T15:30:43.371Z,28.69
2019-06-08T15:33:18.179Z,28.87
2019-06-08T15:35:49.932Z,29.04
2019-06-08T15:38:23.859Z,28.98
2019-06-08T15:40:57.655Z,28.82
2019-06-08T15:43:35.257Z,28.62
2019-06-08T15:46:05.362Z,28.56
2019-06-08T15:48:38.226Z,28.32
2019-06-08T15:51:10.617Z,28.11
2019-06-08T15:53:43.229Z,27.92
2019-06-08T15:56:15.570Z,27.86
2019-06-08T15:58:48.747Z,27.56
2019-06-08T16:01:21.135Z,27.44
2019-06-08T16:03:53.906Z,27.43
2019-06-08T16:06:27.694Z,27.32
2019-06-08T16:09:00.393Z,27.22
2019-06-08T16:11:34.651Z,27.17
2019-06-08T16:14:07.330Z,27.17
2019-06-08T16:16:40.101Z,27.16
2019-06-08T16:19:12.454Z,27.08
2019-06-08T16:21:45.028Z,26.95
2019-06-08T16:24:17.379Z,26.77
2019-06-08T16:26:53.210Z,26.70
2019-06-08T16:29:23.771Z,26.42
2019-06-08T16:31:57.537Z,26.58
2019-06-08T16:34:31.267Z,26.53
2019-06-08T16:37:03.876Z,26.50
2019-06-08T16:39:36.240Z,26.40
2019-06-08T16:42:08.764Z,26.27
2019-06-08T16:44:41.296Z,26.31
2019-06-08T16:47:13.928Z,26.25
2019-06-08T16:49:46.227Z,26.23
2019-06-08T16:52:18.668Z,26.21
2019-06-08T16:54:51.451Z,26.07
2019-06-08T16:57:23.983Z,25.99
2019-06-08T16:59:56.716Z,25.92
2019-06-08T17:02:29.130Z,25.88
2019-06-08T17:05:01.715Z,25.81
2019-06-08T17:07:35.588Z,25.76
2019-06-08T17:10:08.428Z,25.71
2019-06-08T17:12:40.772Z,25.59
2019-06-08T17:15:13.950Z,25.52
2019-06-08T17:17:46.435Z,25.40
2019-06-08T17:20:19.021Z,25.34
2019-06-08T17:22:51.288Z,25.30
2019-06-08T17:25:23.966Z,25.22
2019-06-08T17:27:56.386Z,25.17
2019-06-08T17:30:28.959Z,25.14
2019-06-08T17:33:01.552Z,25.10
2019-06-08T17:35:35.592Z,25.08
2019-06-08T17:38:08.118Z,25.02
2019-06-08T17:40:40.633Z,25.03
2019-06-08T17:43:13.139Z,25.00
2019-06-08T17:45:45.562Z,24.96
2019-06-08T17:48:18.704Z,24.97
2019-06-08T17:50:51.404Z,24.91
2019-06-08T17:53:23.892Z,24.84
2019-06-08T17:55:56.227Z,24.73
2019-06-08T17:58:28.733Z,24.63
2019-06-08T18:01:01.365Z,24.51
2019-06-08T18:03:35.382Z,24.38
2019-06-08T18:06:08.075Z,24.27
2019-06-08T18:08:43.325Z,24.20
2019-06-08T18:11:17.216Z,24.13
2019-06-08T18:13:48.929Z,24.03
2019-06-08T18:16:21.801Z,23.95
2019-06-08T18:18:54.818Z,23.92
2019-06-08T18:21:28.257Z,23.86
2019-06-08T18:24:01.027Z,23.77
2019-06-08T18:26:34.343Z,23.70
2019-06-08T18:29:07.892Z,23.63
2019-06-08T18:31:42.557Z,23.54
2019-06-08T18:34:14.550Z,23.48
2019-06-08T18:36:48.016Z,23.42
2019-06-08T18:39:20.735Z,23.39
2019-06-08T18:41:53.249Z,23.31
2019-06-08T18:44:28.310Z,23.17
2019-06-08T18:47:00.050Z,23.15
2019-06-08T18:49:32.931Z,23.05
2019-06-08T18:52:07.986Z,23.05
2019-06-08T18:54:41.630Z,22.91
2019-06-08T18:57:14.668Z,22.77
2019-06-08T18:59:52.595Z,22.72
2019-06-08T19:02:21.506Z,22.70
2019-06-08T19:04:54.066Z,22.54
2019-06-08T19:07:28.359Z,22.50
2019-06-08T19:10:04.273Z,22.51
2019-06-08T19:12:39.582Z,22.55
2019-06-08T19:15:11.419Z,22.49
2019-06-08T19:17:50.282Z,22.43
2019-06-08T19:20:18.507Z,22.19
2019-06-08T19:22:54.328Z,22.19
2019-06-08T19:25:27.181Z,22.10
2019-06-08T19:27:59.879Z,22.04
2019-06-08T19:30:32.684Z,21.89
2019-06-08T19:33:07.190Z,21.80
2019-06-08T19:35:40.767Z,21.78
2019-06-08T19:38:13.821Z,21.75
2019-06-08T19:40:46.475Z,21.67
2019-06-08T19:43:19.080Z,21.68
2019-06-08T19:45:52.663Z,21.59
2019-06-08T19:48:29.829Z,21.57
2019-06-08T19:50:59.513Z,21.53
2019-06-08T19:53:32.557Z,21.47
2019-06-08T19:56:07.672Z,21.27
2019-06-08T19:58:52.421Z,21.27
2019-06-08T20:01:13.700Z,21.28
2019-06-08T20:03:46.986Z,21.12
2019-06-08T20:06:20.238Z,21.12
2019-06-08T20:08:53.400Z,21.02
2019-06-08T20:11:26.115Z,20.94
2019-06-08T20:13:58.831Z,20.88
2019-06-08T20:16:31.343Z,20.67
2019-06-08T20:19:04.156Z,20.44
2019-06-08T20:21:38.125Z,20.29
2019-06-08T20:24:13.204Z,20.11
2019-06-08T20:26:47.164Z,20.00
2019-06-08T20:29:20.250Z,20.03
2019-06-08T20:31:53.768Z,20.01
2019-06-08T20:34:27.136Z,19.97
2019-06-08T20:37:01.545Z,19.95
2019-06-08T20:39:38.308Z,19.91
2019-06-08T20:42:11.964Z,19.97
2019-06-08T20:44:44.613Z,20.00
2019-06-08T20:47:20.677Z,20.01
2019-06-08T20:49:53.531Z,20.01
2019-06-08T20:52:28.025Z,19.97
2019-06-08T20:55:00.372Z,20.03
2019-06-08T20:57:32.986Z,20.04
2019-06-08T21:00:11.868Z,19.99
2019-06-08T21:02:43.955Z,19.97
2019-06-08T21:05:18.220Z,20.00
2019-06-08T21:07:52.885Z,19.96
2019-06-08T21:10:24.969Z,19.94
2019-06-08T21:12:58.741Z,19.90
2019-06-08T21:15:31.558Z,19.81
2019-06-08T21:18:04.188Z,19.74
2019-06-08T21:20:37.762Z,19.72
2019-06-08T21:23:09.475Z,19.68
2019-06-08T21:25:41.586Z,19.66
2019-06-08T21:28:13.853Z,19.65
2019-06-08T21:30:53.334Z,19.73
2019-06-08T21:33:20.951Z,19.74
2019-06-08T21:35:57.781Z,19.67
2019-06-08T21:38:28.201Z,19.60
2019-06-08T21:41:02.925Z,19.56
2019-06-08T21:43:37.444Z,19.46
2019-06-08T21:46:09.811Z,19.40
2019-06-08T21:48:42.293Z,19.43
2019-06-08T21:51:14.855Z,19.40
2019-06-08T21:53:49.465Z,19.36
2019-06-08T21:56:21.450Z,19.40
2019-06-08T21:58:54.675Z,19.56
2019-06-08T22:01:30.161Z,19.53
2019-06-08T22:04:02.538Z,19.51
2019-06-08T22:06:37.240Z,19.42
2019-06-08T22:09:09.692Z,19.38
2019-06-08T22:11:42.492Z,19.40
2019-06-08T22:14:15.259Z,19.41
2019-06-08T22:16:47.902Z,19.49
2019-06-08T22:19:20.374Z,19.50
2019-06-08T22:21:53.787Z,19.40
2019-06-08T22:24:27.753Z,19.31
2019-06-08T22:27:01.868Z,19.34
2019-06-08T22:29:34.756Z,19.32
2019-06-08T22:32:07.817Z,19.33
2019-06-08T22:34:40.552Z,19.36
2019-06-08T22:37:12.896Z,19.34
2019-06-08T22:39:47.777Z,19.41
2019-06-08T22:42:19.589Z,19.49
2019-06-08T22:44:52.731Z,19.57
2019-06-08T22:47:27.159Z,19.64
2019-06-08T22:50:00.835Z,19.69
2019-06-08T22:52:33.594Z,19.73
2019-06-08T22:55:09.714Z,19.73
2019-06-08T22:57:39.448Z,19.71
2019-06-08T23:00:17.587Z,19.76
2019-06-08T23:02:48.596Z,19.87
2019-06-08T23:05:20.721Z,19.83
2019-06-08T23:07:54.770Z,19.74
2019-06-08T23:10:27.219Z,19.74
2019-06-08T23:13:02.320Z,19.64
2019-06-08T23:15:34.285Z,19.65
2019-06-08T23:18:09.473Z,19.57
2019-06-08T23:20:41.180Z,19.51
2019-06-08T23:23:13.662Z,19.56
2019-06-08T23:25:47.888Z,19.50
2019-06-08T23:28:20.573Z,19.53
2019-06-08T23:31:05.877Z,19.56
2019-06-08T23:33:27.938Z,19.60
2019-06-08T23:36:33.697Z,19.63
2019-06-08T23:38:34.540Z,19.59
2019-06-08T23:41:09.725Z,19.57
2019-06-08T23:43:41.244Z,19.53
2019-06-08T23:46:13.839Z,19.55
2019-06-08T23:48:48.428Z,19.56
2019-06-08T23:51:20.601Z,19.50
2019-06-08T23:53:53.269Z,19.39
2019-06-08T23:56:27.730Z,19.22
2019-06-08T23:59:00.369Z,18.71
